sensor_id;sensor_type;location;lat;lon;timestamp;P1;durP1;ratioP1;P2;durP2;ratioP2
57395;SDS011;43222;52.912;6.940;2023-07-20T00:01:05;6.57;;;3.50;;
57395;SDS011;43222;52.912;6.940;2023-07-20T00:03:31;6.25;;;3.63;;
57395;SDS011;43222;52.912;6.940;2023-07-20T00:05:57;7.28;;;3.20;;
57395;SDS011;43222;52.912;6.940;2023-07-20T00:08:23;5.35;;;3.45;;
57395;SDS011;43222;52.912;6.940;2023-07-20T00:10:50;9.77;;;4.07;;
57395;SDS011;43222;52.912;6.940;2023-07-20T00:13:16;7.50;;;3.80;;
57395;SDS011;43222;52.912;6.940;2023-07-20T00:15:43;7.30;;;4.15;;
57395;SDS011;43222;52.912;6.940;2023-07-20T00:18:10;8.73;;;3.80;;
57395;SDS011;43222;52.912;6.940;2023-07-20T00:20:36;8.85;;;3.53;;
57395;SDS011;43222;52.912;6.940;2023-07-20T00:23:02;9.20;;;4.00;;
57395;SDS011;43222;52.912;6.940;2023-07-20T00:25:28;5.82;;;3.60;;
57395;SDS011;43222;52.912;6.940;2023-07-20T00:27:54;7.68;;;4.43;;
57395;SDS011;43222;52.912;6.940;2023-07-20T00:30:20;9.05;;;3.92;;
57395;SDS011;43222;52.912;6.940;2023-07-20T00:32:46;7.30;;;4.57;;
57395;SDS011;43222;52.912;6.940;2023-07-20T00:35:12;6.93;;;4.40;;
57395;SDS011;43222;52.912;6.940;2023-07-20T00:37:39;8.18;;;4.50;;
57395;SDS011;43222;52.912;6.940;2023-07-20T00:40:05;8.05;;;4.85;;
57395;SDS011;43222;52.912;6.940;2023-07-20T00:42:34;8.68;;;4.30;;
57395;SDS011;43222;52.912;6.940;2023-07-20T00:45:00;8.02;;;4.35;;
57395;SDS011;43222;52.912;6.940;2023-07-20T00:47:27;9.50;;;4.53;;
57395;SDS011;43222;52.912;6.940;2023-07-20T00:49:53;6.60;;;4.00;;
57395;SDS011;43222;52.912;6.940;2023-07-20T00:52:22;6.43;;;4.20;;
57395;SDS011;43222;52.912;6.940;2023-07-20T00:54:49;8.70;;;4.38;;
57395;SDS011;43222;52.912;6.940;2023-07-20T00:57:15;7.15;;;4.35;;
57395;SDS011;43222;52.912;6.940;2023-07-20T00:59:42;6.95;;;4.10;;
57395;SDS011;43222;52.912;6.940;2023-07-20T01:02:08;6.60;;;3.88;;
57395;SDS011;43222;52.912;6.940;2023-07-20T01:04:34;8.55;;;4.40;;
57395;SDS011;43222;52.912;6.940;2023-07-20T01:07:14;6.47;;;4.35;;
57395;SDS011;43222;52.912;6.940;2023-07-20T01:10:00;9.43;;;4.72;;
57395;SDS011;43222;52.912;6.940;2023-07-20T01:12:31;5.88;;;4.30;;
57395;SDS011;43222;52.912;6.940;2023-07-20T01:14:58;7.63;;;4.00;;
57395;SDS011;43222;52.912;6.940;2023-07-20T01:17:25;6.75;;;4.38;;
57395;SDS011;43222;52.912;6.940;2023-07-20T01:19:51;8.63;;;4.10;;
57395;SDS011;43222;52.912;6.940;2023-07-20T01:22:23;7.78;;;4.18;;
57395;SDS011;43222;52.912;6.940;2023-07-20T01:32:55;8.07;;;4.30;;
57395;SDS011;43222;52.912;6.940;2023-07-20T01:35:23;7.43;;;4.15;;
57395;SDS011;43222;52.912;6.940;2023-07-20T01:37:53;6.22;;;3.28;;
57395;SDS011;43222;52.912;6.940;2023-07-20T01:40:19;6.32;;;3.90;;
57395;SDS011;43222;52.912;6.940;2023-07-20T01:42:46;7.47;;;3.50;;
57395;SDS011;43222;52.912;6.940;2023-07-20T01:45:13;6.53;;;3.42;;
57395;SDS011;43222;52.912;6.940;2023-07-20T01:47:39;5.93;;;4.05;;
57395;SDS011;43222;52.912;6.940;2023-07-20T01:50:06;5.60;;;3.10;;
57395;SDS011;43222;52.912;6.940;2023-07-20T01:52:32;6.75;;;2.97;;
57395;SDS011;43222;52.912;6.940;2023-07-20T01:54:58;7.30;;;3.25;;
57395;SDS011;43222;52.912;6.940;2023-07-20T01:57:24;5.43;;;2.80;;
57395;SDS011;43222;52.912;6.940;2023-07-20T01:59:50;5.40;;;2.50;;
57395;SDS011;43222;52.912;6.940;2023-07-20T02:02:17;4.65;;;2.15;;
57395;SDS011;43222;52.912;6.940;2023-07-20T02:04:43;8.00;;;2.42;;
57395;SDS011;43222;52.912;6.940;2023-07-20T02:07:09;5.13;;;2.45;;
57395;SDS011;43222;52.912;6.940;2023-07-20T02:09:35;6.82;;;2.67;;
57395;SDS011;43222;52.912;6.940;2023-07-20T02:12:02;5.25;;;2.22;;
57395;SDS011;43222;52.912;6.940;2023-07-20T02:14:28;5.07;;;2.30;;
57395;SDS011;43222;52.912;6.940;2023-07-20T02:16:54;6.40;;;2.30;;
57395;SDS011;43222;52.912;6.940;2023-07-20T02:19:24;6.50;;;2.70;;
57395;SDS011;43222;52.912;6.940;2023-07-20T02:21:51;3.67;;;2.15;;
57395;SDS011;43222;52.912;6.940;2023-07-20T02:24:17;3.97;;;2.10;;
57395;SDS011;43222;52.912;6.940;2023-07-20T02:26:43;7.63;;;2.80;;
57395;SDS011;43222;52.912;6.940;2023-07-20T02:29:10;6.07;;;2.70;;
57395;SDS011;43222;52.912;6.940;2023-07-20T02:31:39;7.68;;;2.45;;
57395;SDS011;43222;52.912;6.940;2023-07-20T02:36:34;5.72;;;2.83;;
57395;SDS011;43222;52.912;6.940;2023-07-20T02:39:00;5.78;;;2.97;;
57395;SDS011;43222;52.912;6.940;2023-07-20T02:41:30;5.50;;;2.83;;
57395;SDS011;43222;52.912;6.940;2023-07-20T02:43:56;6.10;;;3.13;;
57395;SDS011;43222;52.912;6.940;2023-07-20T02:46:22;8.10;;;3.35;;
57395;SDS011;43222;52.912;6.940;2023-07-20T02:48:48;6.30;;;3.47;;
57395;SDS011;43222;52.912;6.940;2023-07-20T02:51:14;6.57;;;3.63;;
57395;SDS011;43222;52.912;6.940;2023-07-20T02:53:40;5.85;;;3.80;;
57395;SDS011;43222;52.912;6.940;2023-07-20T02:56:06;6.97;;;3.42;;
57395;SDS011;43222;52.912;6.940;2023-07-20T02:58:33;7.07;;;4.10;;
57395;SDS011;43222;52.912;6.940;2023-07-20T03:01:03;7.38;;;4.30;;
57395;SDS011;43222;52.912;6.940;2023-07-20T03:03:29;8.68;;;4.43;;
57395;SDS011;43222;52.912;6.940;2023-07-20T03:05:55;6.50;;;3.80;;
57395;SDS011;43222;52.912;6.940;2023-07-20T03:08:22;7.93;;;4.13;;
57395;SDS011;43222;52.912;6.940;2023-07-20T03:10:49;5.72;;;4.00;;
57395;SDS011;43222;52.912;6.940;2023-07-20T03:13:15;6.22;;;4.70;;
57395;SDS011;43222;52.912;6.940;2023-07-20T03:15:41;6.85;;;4.70;;
57395;SDS011;43222;52.912;6.940;2023-07-20T03:18:08;7.50;;;5.15;;
57395;SDS011;43222;52.912;6.940;2023-07-20T03:20:35;9.07;;;4.82;;
57395;SDS011;43222;52.912;6.940;2023-07-20T03:23:02;6.82;;;5.65;;
57395;SDS011;43222;52.912;6.940;2023-07-20T03:25:28;6.63;;;5.10;;
57395;SDS011;43222;52.912;6.940;2023-07-20T03:27:54;6.25;;;4.85;;
57395;SDS011;43222;52.912;6.940;2023-07-20T03:30:20;6.70;;;4.28;;
57395;SDS011;43222;52.912;6.940;2023-07-20T03:32:46;8.00;;;5.20;;
57395;SDS011;43222;52.912;6.940;2023-07-20T03:35:12;6.80;;;4.88;;
57395;SDS011;43222;52.912;6.940;2023-07-20T03:37:40;7.22;;;5.05;;
57395;SDS011;43222;52.912;6.940;2023-07-20T03:40:07;6.25;;;4.90;;
57395;SDS011;43222;52.912;6.940;2023-07-20T03:42:33;6.53;;;4.97;;
57395;SDS011;43222;52.912;6.940;2023-07-20T03:44:59;6.20;;;4.60;;
57395;SDS011;43222;52.912;6.940;2023-07-20T03:47:26;5.72;;;4.18;;
57395;SDS011;43222;52.912;6.940;2023-07-20T03:49:52;6.93;;;4.30;;
57395;SDS011;43222;52.912;6.940;2023-07-20T03:52:18;7.55;;;4.70;;
57395;SDS011;43222;52.912;6.940;2023-07-20T03:54:44;6.82;;;4.97;;
57395;SDS011;43222;52.912;6.940;2023-07-20T03:57:10;6.82;;;4.90;;
57395;SDS011;43222;52.912;6.940;2023-07-20T03:59:39;7.55;;;5.00;;
57395;SDS011;43222;52.912;6.940;2023-07-20T04:02:06;6.45;;;5.32;;
57395;SDS011;43222;52.912;6.940;2023-07-20T04:04:32;7.40;;;5.90;;
57395;SDS011;43222;52.912;6.940;2023-07-20T04:06:58;6.53;;;5.05;;
57395;SDS011;43222;52.912;6.940;2023-07-20T04:09:24;6.78;;;5.53;;
57395;SDS011;43222;52.912;6.940;2023-07-20T04:11:50;7.57;;;5.82;;
57395;SDS011;43222;52.912;6.940;2023-07-20T04:14:16;9.50;;;5.68;;
57395;SDS011;43222;52.912;6.940;2023-07-20T04:16:42;8.70;;;6.45;;
57395;SDS011;43222;52.912;6.940;2023-07-20T04:19:09;8.95;;;5.68;;
57395;SDS011;43222;52.912;6.940;2023-07-20T04:21:39;7.88;;;6.55;;
57395;SDS011;43222;52.912;6.940;2023-07-20T04:24:06;8.45;;;5.40;;
57395;SDS011;43222;52.912;6.940;2023-07-20T04:26:32;8.48;;;6.35;;
57395;SDS011;43222;52.912;6.940;2023-07-20T04:28:58;8.00;;;6.20;;
57395;SDS011;43222;52.912;6.940;2023-07-20T04:31:27;8.32;;;5.60;;
57395;SDS011;43222;52.912;6.940;2023-07-20T04:33:53;7.65;;;5.57;;
57395;SDS011;43222;52.912;6.940;2023-07-20T04:36:19;7.82;;;5.75;;
57395;SDS011;43222;52.912;6.940;2023-07-20T04:38:45;8.40;;;5.25;;
57395;SDS011;43222;52.912;6.940;2023-07-20T04:41:11;9.00;;;5.40;;
57395;SDS011;43222;52.912;6.940;2023-07-20T04:43:40;7.07;;;5.13;;
57395;SDS011;43222;52.912;6.940;2023-07-20T04:46:08;7.18;;;5.13;;
57395;SDS011;43222;52.912;6.940;2023-07-20T04:48:34;6.80;;;5.35;;
57395;SDS011;43222;52.912;6.940;2023-07-20T04:51:00;9.00;;;5.00;;
57395;SDS011;43222;52.912;6.940;2023-07-20T04:53:26;8.65;;;5.13;;
57395;SDS011;43222;52.912;6.940;2023-07-20T04:55:52;7.15;;;5.05;;
57395;SDS011;43222;52.912;6.940;2023-07-20T04:58:20;8.93;;;5.10;;
57395;SDS011;43222;52.912;6.940;2023-07-20T05:00:47;7.88;;;5.05;;
57395;SDS011;43222;52.912;6.940;2023-07-20T05:03:13;7.75;;;5.35;;
57395;SDS011;43222;52.912;6.940;2023-07-20T05:05:39;6.88;;;4.72;;
57395;SDS011;43222;52.912;6.940;2023-07-20T05:08:05;7.75;;;5.00;;
57395;SDS011;43222;52.912;6.940;2023-07-20T05:10:32;7.35;;;4.60;;
57395;SDS011;43222;52.912;6.940;2023-07-20T05:12:58;6.90;;;4.63;;
57395;SDS011;43222;52.912;6.940;2023-07-20T05:15:24;6.30;;;4.55;;
57395;SDS011;43222;52.912;6.940;2023-07-20T05:17:51;6.50;;;4.50;;
57395;SDS011;43222;52.912;6.940;2023-07-20T05:20:17;6.63;;;4.10;;
57395;SDS011;43222;52.912;6.940;2023-07-20T05:22:43;6.65;;;3.90;;
57395;SDS011;43222;52.912;6.940;2023-07-20T05:25:10;6.82;;;3.70;;
57395;SDS011;43222;52.912;6.940;2023-07-20T05:27:36;5.85;;;3.60;;
57395;SDS011;43222;52.912;6.940;2023-07-20T05:30:03;6.07;;;3.55;;
57395;SDS011;43222;52.912;6.940;2023-07-20T05:32:30;6.82;;;3.75;;
57395;SDS011;43222;52.912;6.940;2023-07-20T05:34:56;5.68;;;3.38;;
57395;SDS011;43222;52.912;6.940;2023-07-20T05:37:23;7.28;;;3.17;;
57395;SDS011;43222;52.912;6.940;2023-07-20T05:39:49;6.40;;;3.28;;
57395;SDS011;43222;52.912;6.940;2023-07-20T05:42:15;6.32;;;3.03;;
57395;SDS011;43222;52.912;6.940;2023-07-20T05:44:41;5.97;;;2.40;;
57395;SDS011;43222;52.912;6.940;2023-07-20T05:47:07;5.43;;;2.05;;
57395;SDS011;43222;52.912;6.940;2023-07-20T05:49:34;5.22;;;1.77;;
57395;SDS011;43222;52.912;6.940;2023-07-20T05:52:00;3.47;;;1.20;;
57395;SDS011;43222;52.912;6.940;2023-07-20T05:54:26;4.28;;;1.20;;
57395;SDS011;43222;52.912;6.940;2023-07-20T05:56:53;5.63;;;1.20;;
57395;SDS011;43222;52.912;6.940;2023-07-20T05:59:19;3.58;;;0.90;;
57395;SDS011;43222;52.912;6.940;2023-07-20T06:01:45;3.17;;;0.95;;
57395;SDS011;43222;52.912;6.940;2023-07-20T06:04:14;3.80;;;1.00;;
57395;SDS011;43222;52.912;6.940;2023-07-20T06:06:40;5.50;;;1.00;;
57395;SDS011;43222;52.912;6.940;2023-07-20T06:09:06;2.88;;;0.90;;
57395;SDS011;43222;52.912;6.940;2023-07-20T06:11:37;3.55;;;0.90;;
57395;SDS011;43222;52.912;6.940;2023-07-20T06:14:03;3.35;;;0.80;;
57395;SDS011;43222;52.912;6.940;2023-07-20T06:16:29;3.10;;;0.73;;
57395;SDS011;43222;52.912;6.940;2023-07-20T06:18:55;3.67;;;0.80;;
57395;SDS011;43222;52.912;6.940;2023-07-20T06:21:22;3.55;;;0.90;;
57395;SDS011;43222;52.912;6.940;2023-07-20T06:23:48;1.58;;;0.70;;
57395;SDS011;43222;52.912;6.940;2023-07-20T06:26:14;3.83;;;0.60;;
57395;SDS011;43222;52.912;6.940;2023-07-20T06:28:40;5.82;;;0.90;;
57395;SDS011;43222;52.912;6.940;2023-07-20T06:31:07;2.58;;;0.60;;
57395;SDS011;43222;52.912;6.940;2023-07-20T06:33:33;2.25;;;0.65;;
57395;SDS011;43222;52.912;6.940;2023-07-20T06:36:02;3.92;;;0.75;;
57395;SDS011;43222;52.912;6.940;2023-07-20T06:38:28;2.58;;;0.70;;
57395;SDS011;43222;52.912;6.940;2023-07-20T06:40:54;2.53;;;0.70;;
57395;SDS011;43222;52.912;6.940;2023-07-20T06:43:20;3.53;;;0.82;;
57395;SDS011;43222;52.912;6.940;2023-07-20T06:45:51;5.40;;;0.80;;
57395;SDS011;43222;52.912;6.940;2023-07-20T06:48:18;3.55;;;0.80;;
57395;SDS011;43222;52.912;6.940;2023-07-20T06:50:44;1.88;;;0.55;;
57395;SDS011;43222;52.912;6.940;2023-07-20T06:53:10;2.97;;;0.80;;
57395;SDS011;43222;52.912;6.940;2023-07-20T06:55:36;3.90;;;0.80;;
57395;SDS011;43222;52.912;6.940;2023-07-20T06:58:03;3.90;;;0.70;;
57395;SDS011;43222;52.912;6.940;2023-07-20T07:00:29;5.88;;;1.00;;
57395;SDS011;43222;52.912;6.940;2023-07-20T07:02:55;5.97;;;0.90;;
57395;SDS011;43222;52.912;6.940;2023-07-20T07:05:21;4.40;;;1.20;;
57395;SDS011;43222;52.912;6.940;2023-07-20T07:07:47;3.45;;;0.80;;
57395;SDS011;43222;52.912;6.940;2023-07-20T07:10:14;4.78;;;0.90;;
57395;SDS011;43222;52.912;6.940;2023-07-20T07:12:40;2.75;;;0.70;;
57395;SDS011;43222;52.912;6.940;2023-07-20T07:15:06;3.50;;;0.88;;
57395;SDS011;43222;52.912;6.940;2023-07-20T07:17:32;4.18;;;0.90;;
57395;SDS011;43222;52.912;6.940;2023-07-20T07:19:58;6.72;;;0.95;;
57395;SDS011;43222;52.912;6.940;2023-07-20T07:22:24;3.75;;;0.80;;
57395;SDS011;43222;52.912;6.940;2023-07-20T07:24:50;2.67;;;0.88;;
57395;SDS011;43222;52.912;6.940;2023-07-20T07:27:17;5.22;;;0.90;;
57395;SDS011;43222;52.912;6.940;2023-07-20T07:29:43;3.05;;;0.70;;
57395;SDS011;43222;52.912;6.940;2023-07-20T07:32:09;5.55;;;1.00;;
57395;SDS011;43222;52.912;6.940;2023-07-20T07:34:36;4.57;;;0.90;;
57395;SDS011;43222;52.912;6.940;2023-07-20T07:37:02;6.45;;;0.98;;
57395;SDS011;43222;52.912;6.940;2023-07-20T07:39:28;4.20;;;0.95;;
57395;SDS011;43222;52.912;6.940;2023-07-20T07:41:55;4.85;;;0.90;;
57395;SDS011;43222;52.912;6.940;2023-07-20T07:44:21;6.32;;;1.08;;
57395;SDS011;43222;52.912;6.940;2023-07-20T07:46:47;3.85;;;0.70;;
57395;SDS011;43222;52.912;6.940;2023-07-20T07:49:14;5.90;;;0.90;;
57395;SDS011;43222;52.912;6.940;2023-07-20T07:51:40;3.78;;;0.73;;
57395;SDS011;43222;52.912;6.940;2023-07-20T07:54:06;4.50;;;1.10;;
57395;SDS011;43222;52.912;6.940;2023-07-20T07:56:32;5.32;;;0.90;;
57395;SDS011;43222;52.912;6.940;2023-07-20T07:58:58;6.03;;;1.08;;
57395;SDS011;43222;52.912;6.940;2023-07-20T08:01:24;3.78;;;0.93;;
57395;SDS011;43222;52.912;6.940;2023-07-20T08:03:50;2.42;;;0.60;;
57395;SDS011;43222;52.912;6.940;2023-07-20T08:06:16;5.18;;;0.80;;
57395;SDS011;43222;52.912;6.940;2023-07-20T08:08:43;4.25;;;0.80;;
57395;SDS011;43222;52.912;6.940;2023-07-20T08:11:09;5.88;;;0.90;;
57395;SDS011;43222;52.912;6.940;2023-07-20T08:13:35;3.58;;;1.00;;
57395;SDS011;43222;52.912;6.940;2023-07-20T08:16:01;4.72;;;0.95;;
57395;SDS011;43222;52.912;6.940;2023-07-20T08:18:27;3.63;;;0.80;;
57395;SDS011;43222;52.912;6.940;2023-07-20T08:20:54;2.65;;;0.65;;
57395;SDS011;43222;52.912;6.940;2023-07-20T08:23:20;5.00;;;1.00;;
57395;SDS011;43222;52.912;6.940;2023-07-20T08:25:46;4.18;;;0.98;;
57395;SDS011;43222;52.912;6.940;2023-07-20T08:28:14;3.67;;;0.85;;
57395;SDS011;43222;52.912;6.940;2023-07-20T08:30:44;5.65;;;0.82;;
57395;SDS011;43222;52.912;6.940;2023-07-20T08:33:10;4.35;;;0.90;;
57395;SDS011;43222;52.912;6.940;2023-07-20T08:35:37;4.13;;;1.20;;
57395;SDS011;43222;52.912;6.940;2023-07-20T08:38:03;3.45;;;0.80;;
57395;SDS011;43222;52.912;6.940;2023-07-20T08:40:30;4.18;;;0.90;;
57395;SDS011;43222;52.912;6.940;2023-07-20T08:42:57;4.03;;;1.00;;
57395;SDS011;43222;52.912;6.940;2023-07-20T08:45:23;3.72;;;0.90;;
57395;SDS011;43222;52.912;6.940;2023-07-20T08:47:51;4.75;;;0.98;;
57395;SDS011;43222;52.912;6.940;2023-07-20T08:50:17;2.90;;;0.95;;
57395;SDS011;43222;52.912;6.940;2023-07-20T08:52:44;3.42;;;1.10;;
57395;SDS011;43222;52.912;6.940;2023-07-20T08:55:10;3.65;;;1.00;;
57395;SDS011;43222;52.912;6.940;2023-07-20T08:57:36;5.57;;;1.05;;
57395;SDS011;43222;52.912;6.940;2023-07-20T09:00:04;3.88;;;1.00;;
57395;SDS011;43222;52.912;6.940;2023-07-20T09:02:35;5.57;;;1.20;;
57395;SDS011;43222;52.912;6.940;2023-07-20T09:05:02;5.90;;;1.00;;
57395;SDS011;43222;52.912;6.940;2023-07-20T09:07:29;4.30;;;0.95;;
57395;SDS011;43222;52.912;6.940;2023-07-20T09:09:57;3.20;;;1.00;;
57395;SDS011;43222;52.912;6.940;2023-07-20T09:12:23;3.38;;;0.93;;
57395;SDS011;43222;52.912;6.940;2023-07-20T09:14:50;3.85;;;1.20;;
57395;SDS011;43222;52.912;6.940;2023-07-20T09:17:16;5.38;;;0.93;;
57395;SDS011;43222;52.912;6.940;2023-07-20T09:19:45;4.95;;;1.00;;
57395;SDS011;43222;52.912;6.940;2023-07-20T09:22:12;4.18;;;1.23;;
57395;SDS011;43222;52.912;6.940;2023-07-20T09:24:38;5.05;;;1.23;;
57395;SDS011;43222;52.912;6.940;2023-07-20T09:27:06;4.57;;;1.08;;
57395;SDS011;43222;52.912;6.940;2023-07-20T09:29:33;5.95;;;1.00;;
57395;SDS011;43222;52.912;6.940;2023-07-20T09:32:02;3.25;;;1.10;;
57395;SDS011;43222;52.912;6.940;2023-07-20T09:34:31;3.80;;;1.20;;
57395;SDS011;43222;52.912;6.940;2023-07-20T09:36:58;5.03;;;1.00;;
57395;SDS011;43222;52.912;6.940;2023-07-20T09:39:25;5.45;;;1.00;;
57395;SDS011;43222;52.912;6.940;2023-07-20T09:41:51;3.13;;;0.90;;
57395;SDS011;43222;52.912;6.940;2023-07-20T09:44:17;6.03;;;1.40;;
57395;SDS011;43222;52.912;6.940;2023-07-20T09:46:45;3.40;;;1.00;;
57395;SDS011;43222;52.912;6.940;2023-07-20T09:49:11;4.22;;;0.98;;
57395;SDS011;43222;52.912;6.940;2023-07-20T09:51:37;4.18;;;0.95;;
57395;SDS011;43222;52.912;6.940;2023-07-20T09:54:04;5.90;;;1.10;;
57395;SDS011;43222;52.912;6.940;2023-07-20T09:56:31;3.00;;;0.90;;
57395;SDS011;43222;52.912;6.940;2023-07-20T09:58:58;3.72;;;1.20;;
57395;SDS011;43222;52.912;6.940;2023-07-20T10:01:24;4.40;;;1.10;;
57395;SDS011;43222;52.912;6.940;2023-07-20T10:03:56;2.42;;;0.80;;
57395;SDS011;43222;52.912;6.940;2023-07-20T10:06:26;3.90;;;0.90;;
57395;SDS011;43222;52.912;6.940;2023-07-20T10:08:55;4.55;;;1.00;;
57395;SDS011;43222;52.912;6.940;2023-07-20T10:11:22;2.95;;;1.00;;
57395;SDS011;43222;52.912;6.940;2023-07-20T10:13:51;3.92;;;1.10;;
57395;SDS011;43222;52.912;6.940;2023-07-20T10:18:48;4.22;;;1.08;;
57395;SDS011;43222;52.912;6.940;2023-07-20T10:21:17;4.97;;;1.23;;
57395;SDS011;43222;52.912;6.940;2023-07-20T10:23:44;4.13;;;0.98;;
57395;SDS011;43222;52.912;6.940;2023-07-20T10:26:11;3.15;;;1.10;;
57395;SDS011;43222;52.912;6.940;2023-07-20T10:28:37;3.78;;;1.00;;
57395;SDS011;43222;52.912;6.940;2023-07-20T10:31:04;5.32;;;1.30;;
57395;SDS011;43222;52.912;6.940;2023-07-20T10:33:31;4.05;;;1.20;;
57395;SDS011;43222;52.912;6.940;2023-07-20T10:36:00;4.93;;;1.30;;
57395;SDS011;43222;52.912;6.940;2023-07-20T10:41:15;5.65;;;1.10;;
57395;SDS011;43222;52.912;6.940;2023-07-20T10:43:42;6.32;;;1.40;;
57395;SDS011;43222;52.912;6.940;2023-07-20T10:46:08;4.18;;;1.45;;
57395;SDS011;43222;52.912;6.940;2023-07-20T10:48:36;3.58;;;1.10;;
57395;SDS011;43222;52.912;6.940;2023-07-20T10:51:22;5.05;;;1.58;;
57395;SDS011;43222;52.912;6.940;2023-07-20T10:53:49;4.38;;;1.58;;
57395;SDS011;43222;52.912;6.940;2023-07-20T10:56:19;5.63;;;1.60;;
57395;SDS011;43222;52.912;6.940;2023-07-20T10:58:45;4.53;;;1.50;;
57395;SDS011;43222;52.912;6.940;2023-07-20T11:01:16;3.47;;;1.35;;
57395;SDS011;43222;52.912;6.940;2023-07-20T11:09:06;5.18;;;1.63;;
57395;SDS011;43222;52.912;6.940;2023-07-20T11:11:33;4.30;;;1.40;;
57395;SDS011;43222;52.912;6.940;2023-07-20T11:14:02;6.53;;;1.50;;
57395;SDS011;43222;52.912;6.940;2023-07-20T11:16:41;5.85;;;1.40;;
57395;SDS011;43222;52.912;6.940;2023-07-20T11:19:16;5.13;;;1.60;;
57395;SDS011;43222;52.912;6.940;2023-07-20T11:21:43;7.75;;;1.60;;
57395;SDS011;43222;52.912;6.940;2023-07-20T11:24:09;14.00;;;1.90;;
57395;SDS011;43222;52.912;6.940;2023-07-20T11:26:46;4.65;;;1.30;;
57395;SDS011;43222;52.912;6.940;2023-07-20T11:29:12;4.82;;;1.60;;
57395;SDS011;43222;52.912;6.940;2023-07-20T11:31:39;5.57;;;1.60;;
57395;SDS011;43222;52.912;6.940;2023-07-20T11:34:07;5.53;;;1.55;;
57395;SDS011;43222;52.912;6.940;2023-07-20T11:36:33;5.43;;;1.60;;
57395;SDS011;43222;52.912;6.940;2023-07-20T11:38:59;4.95;;;1.55;;
57395;SDS011;43222;52.912;6.940;2023-07-20T11:41:25;6.28;;;2.00;;
57395;SDS011;43222;52.912;6.940;2023-07-20T11:43:52;5.78;;;1.75;;
57395;SDS011;43222;52.912;6.940;2023-07-20T11:46:19;4.82;;;1.60;;
57395;SDS011;43222;52.912;6.940;2023-07-20T11:48:45;5.32;;;1.50;;
57395;SDS011;43222;52.912;6.940;2023-07-20T11:51:15;5.30;;;1.50;;
57395;SDS011;43222;52.912;6.940;2023-07-20T11:53:41;5.28;;;2.00;;
57395;SDS011;43222;52.912;6.940;2023-07-20T11:56:08;6.57;;;2.10;;
57395;SDS011;43222;52.912;6.940;2023-07-20T11:58:34;5.07;;;1.70;;
57395;SDS011;43222;52.912;6.940;2023-07-20T12:01:00;5.78;;;1.80;;
57395;SDS011;43222;52.912;6.940;2023-07-20T12:03:27;5.32;;;1.75;;
57395;SDS011;43222;52.912;6.940;2023-07-20T12:05:53;5.30;;;1.85;;
57395;SDS011;43222;52.912;6.940;2023-07-20T12:08:19;5.15;;;1.65;;
57395;SDS011;43222;52.912;6.940;2023-07-20T12:10:45;5.28;;;1.50;;
57395;SDS011;43222;52.912;6.940;2023-07-20T12:13:11;4.88;;;1.42;;
57395;SDS011;43222;52.912;6.940;2023-07-20T12:15:37;4.60;;;1.77;;
57395;SDS011;43222;52.912;6.940;2023-07-20T12:18:04;5.45;;;1.58;;
57395;SDS011;43222;52.912;6.940;2023-07-20T12:20:37;8.15;;;1.65;;
57395;SDS011;43222;52.912;6.940;2023-07-20T12:25:36;5.40;;;1.42;;
57395;SDS011;43222;52.912;6.940;2023-07-20T12:30:29;4.70;;;1.20;;
57395;SDS011;43222;52.912;6.940;2023-07-20T12:32:55;3.28;;;1.20;;
57395;SDS011;43222;52.912;6.940;2023-07-20T12:35:21;3.60;;;1.27;;
57395;SDS011;43222;52.912;6.940;2023-07-20T12:37:47;3.55;;;1.00;;
57395;SDS011;43222;52.912;6.940;2023-07-20T12:40:21;7.07;;;1.42;;
57395;SDS011;43222;52.912;6.940;2023-07-20T12:42:47;5.55;;;1.23;;
57395;SDS011;43222;52.912;6.940;2023-07-20T12:45:13;5.15;;;1.40;;
57395;SDS011;43222;52.912;6.940;2023-07-20T12:47:40;6.43;;;1.50;;
57395;SDS011;43222;52.912;6.940;2023-07-20T12:50:08;3.70;;;1.17;;
57395;SDS011;43222;52.912;6.940;2023-07-20T12:52:36;3.70;;;1.20;;
57395;SDS011;43222;52.912;6.940;2023-07-20T12:55:03;6.28;;;1.35;;
57395;SDS011;43222;52.912;6.940;2023-07-20T12:57:29;6.22;;;1.75;;
57395;SDS011;43222;52.912;6.940;2023-07-20T12:59:55;5.72;;;1.20;;
57395;SDS011;43222;52.912;6.940;2023-07-20T13:02:21;4.93;;;1.50;;
57395;SDS011;43222;52.912;6.940;2023-07-20T13:04:47;4.55;;;1.27;;
57395;SDS011;43222;52.912;6.940;2023-07-20T13:07:13;4.32;;;1.30;;
57395;SDS011;43222;52.912;6.940;2023-07-20T13:09:39;6.90;;;1.20;;
57395;SDS011;43222;52.912;6.940;2023-07-20T13:12:06;5.18;;;1.55;;
57395;SDS011;43222;52.912;6.940;2023-07-20T13:14:32;5.57;;;1.40;;
57395;SDS011;43222;52.912;6.940;2023-07-20T13:16:58;5.65;;;1.10;;
57395;SDS011;43222;52.912;6.940;2023-07-20T13:19:24;8.52;;;1.33;;
57395;SDS011;43222;52.912;6.940;2023-07-20T13:21:50;5.70;;;1.40;;
57395;SDS011;43222;52.912;6.940;2023-07-20T13:24:16;4.18;;;1.40;;
57395;SDS011;43222;52.912;6.940;2023-07-20T13:26:42;4.55;;;1.45;;
57395;SDS011;43222;52.912;6.940;2023-07-20T13:29:09;5.90;;;1.60;;
57395;SDS011;43222;52.912;6.940;2023-07-20T13:31:35;4.57;;;1.40;;
57395;SDS011;43222;52.912;6.940;2023-07-20T13:34:01;6.35;;;2.03;;
57395;SDS011;43222;52.912;6.940;2023-07-20T13:36:27;4.68;;;1.50;;
57395;SDS011;43222;52.912;6.940;2023-07-20T13:38:53;7.13;;;1.58;;
57395;SDS011;43222;52.912;6.940;2023-07-20T13:41:19;4.55;;;1.42;;
57395;SDS011;43222;52.912;6.940;2023-07-20T13:43:45;3.72;;;1.25;;
57395;SDS011;43222;52.912;6.940;2023-07-20T13:46:11;3.95;;;1.30;;
57395;SDS011;43222;52.912;6.940;2023-07-20T13:48:37;5.85;;;1.50;;
57395;SDS011;43222;52.912;6.940;2023-07-20T13:51:04;4.40;;;1.17;;
57395;SDS011;43222;52.912;6.940;2023-07-20T13:53:30;5.68;;;1.27;;
57395;SDS011;43222;52.912;6.940;2023-07-20T13:55:56;6.63;;;1.20;;
57395;SDS011;43222;52.912;6.940;2023-07-20T13:58:23;4.93;;;1.30;;
57395;SDS011;43222;52.912;6.940;2023-07-20T14:00:49;4.97;;;1.25;;
57395;SDS011;43222;52.912;6.940;2023-07-20T14:03:15;4.50;;;1.30;;
57395;SDS011;43222;52.912;6.940;2023-07-20T14:05:41;6.20;;;1.40;;
57395;SDS011;43222;52.912;6.940;2023-07-20T14:08:08;6.20;;;1.38;;
57395;SDS011;43222;52.912;6.940;2023-07-20T14:10:35;3.38;;;1.23;;
57395;SDS011;43222;52.912;6.940;2023-07-20T14:13:01;5.25;;;1.58;;
57395;SDS011;43222;52.912;6.940;2023-07-20T14:15:27;7.50;;;1.92;;
57395;SDS011;43222;52.912;6.940;2023-07-20T14:17:53;5.95;;;2.00;;
57395;SDS011;43222;52.912;6.940;2023-07-20T14:20:19;5.80;;;1.80;;
57395;SDS011;43222;52.912;6.940;2023-07-20T14:22:45;8.52;;;2.15;;
57395;SDS011;43222;52.912;6.940;2023-07-20T14:25:12;6.93;;;2.25;;
57395;SDS011;43222;52.912;6.940;2023-07-20T14:27:38;5.95;;;1.95;;
57395;SDS011;43222;52.912;6.940;2023-07-20T14:30:05;6.07;;;2.28;;
57395;SDS011;43222;52.912;6.940;2023-07-20T14:32:31;5.43;;;2.00;;
57395;SDS011;43222;52.912;6.940;2023-07-20T14:34:58;5.47;;;1.85;;
57395;SDS011;43222;52.912;6.940;2023-07-20T14:37:24;6.00;;;2.00;;
57395;SDS011;43222;52.912;6.940;2023-07-20T14:39:51;5.00;;;1.60;;
57395;SDS011;43222;52.912;6.940;2023-07-20T14:42:17;5.93;;;1.90;;
57395;SDS011;43222;52.912;6.940;2023-07-20T14:44:43;5.40;;;2.00;;
57395;SDS011;43222;52.912;6.940;2023-07-20T14:47:09;4.72;;;1.85;;
57395;SDS011;43222;52.912;6.940;2023-07-20T14:49:36;5.57;;;1.98;;
57395;SDS011;43222;52.912;6.940;2023-07-20T14:52:02;5.43;;;1.90;;
57395;SDS011;43222;52.912;6.940;2023-07-20T14:54:28;4.60;;;1.70;;
57395;SDS011;43222;52.912;6.940;2023-07-20T14:56:54;6.60;;;1.92;;
57395;SDS011;43222;52.912;6.940;2023-07-20T14:59:21;5.55;;;1.70;;
57395;SDS011;43222;52.912;6.940;2023-07-20T15:01:47;6.75;;;1.88;;
57395;SDS011;43222;52.912;6.940;2023-07-20T15:04:13;5.00;;;1.80;;
57395;SDS011;43222;52.912;6.940;2023-07-20T15:06:40;5.95;;;1.75;;
57395;SDS011;43222;52.912;6.940;2023-07-20T15:09:06;7.80;;;1.80;;
57395;SDS011;43222;52.912;6.940;2023-07-20T15:11:33;4.43;;;1.50;;